sensor_id;sensor_type;location;lat;lon;timestamp;temperature;humidity
10431;DHT22;5262;59.958;17.726;2023-06-26T00:00:20;11.30;99.90
10431;DHT22;5262;59.958;17.726;2023-06-26T00:02:46;11.30;99.90
10431;DHT22;5262;59.958;17.726;2023-06-26T00:05:11;11.20;99.90
10431;DHT22;5262;59.958;17.726;2023-06-26T00:07:37;11.20;99.90
10431;DHT22;5262;59.958;17.726;2023-06-26T00:10:03;11.10;99.90
10431;DHT22;5262;59.958;17.726;2023-06-26T00:12:30;11.10;99.90
10431;DHT22;5262;59.958;17.726;2023-06-26T00:14:56;11.10;99.90
10431;DHT22;5262;59.958;17.726;2023-06-26T00:17:22;11.10;99.90
10431;DHT22;5262;59.958;17.726;2023-06-26T00:19:48;11.00;99.90
10431;DHT22;5262;59.958;17.726;2023-06-26T00:22:14;11.00;99.90
10431;DHT22;5262;59.958;17.726;2023-06-26T00:24:39;11.00;99.90
10431;DHT22;5262;59.958;17.726;2023-06-26T00:27:05;10.90;99.90
10431;DHT22;5262;59.958;17.726;2023-06-26T00:29:31;10.80;99.90
10431;DHT22;5262;59.958;17.726;2023-06-26T00:31:56;10.80;99.90
10431;DHT22;5262;59.958;17.726;2023-06-26T00:34:22;10.70;99.90
10431;DHT22;5262;59.958;17.726;2023-06-26T00:36:48;10.70;99.90
10431;DHT22;5262;59.958;17.726;2023-06-26T00:39:13;10.70;99.90
10431;DHT22;5262;59.958;17.726;2023-06-26T00:41:39;10.70;99.90
10431;DHT22;5262;59.958;17.726;2023-06-26T00:44:05;10.60;99.90
10431;DHT22;5262;59.958;17.726;2023-06-26T00:46:32;10.60;99.90
10431;DHT22;5262;59.958;17.726;2023-06-26T00:49:02;10.60;99.90
10431;DHT22;5262;59.958;17.726;2023-06-26T00:51:29;10.60;99.90
10431;DHT22;5262;59.958;17.726;2023-06-26T00:53:56;10.50;99.90
10431;DHT22;5262;59.958;17.726;2023-06-26T00:56:22;10.60;99.90
10431;DHT22;5262;59.958;17.726;2023-06-26T00:58:48;10.40;99.90
10431;DHT22;5262;59.958;17.726;2023-06-26T01:01:14;10.40;99.90
10431;DHT22;5262;59.958;17.726;2023-06-26T01:03:49;10.40;99.90
10431;DHT22;5262;59.958;17.726;2023-06-26T01:06:20;10.40;99.90
10431;DHT22;5262;59.958;17.726;2023-06-26T01:08:45;10.50;99.90
10431;DHT22;5262;59.958;17.726;2023-06-26T01:11:13;10.50;99.90
10431;DHT22;5262;59.958;17.726;2023-06-26T01:13:40;10.50;99.90
10431;DHT22;5262;59.958;17.726;2023-06-26T01:16:06;10.50;99.90
10431;DHT22;5262;59.958;17.726;2023-06-26T01:18:32;10.40;99.90
10431;DHT22;5262;59.958;17.726;2023-06-26T01:21:00;10.40;99.90
10431;DHT22;5262;59.958;17.726;2023-06-26T01:26:30;10.40;99.90
10431;DHT22;5262;59.958;17.726;2023-06-26T01:29:03;10.30;99.90
10431;DHT22;5262;59.958;17.726;2023-06-26T01:31:30;10.30;99.90
10431;DHT22;5262;59.958;17.726;2023-06-26T01:33:58;10.30;99.90
10431;DHT22;5262;59.958;17.726;2023-06-26T01:36:25;10.20;99.90
10431;DHT22;5262;59.958;17.726;2023-06-26T01:38:50;10.20;99.90
10431;DHT22;5262;59.958;17.726;2023-06-26T01:41:17;10.20;99.90
10431;DHT22;5262;59.958;17.726;2023-06-26T01:46:18;10.10;99.90
10431;DHT22;5262;59.958;17.726;2023-06-26T01:49:02;10.10;99.90
10431;DHT22;5262;59.958;17.726;2023-06-26T01:51:32;10.10;99.90
10431;DHT22;5262;59.958;17.726;2023-06-26T01:54:00;10.00;99.90
10431;DHT22;5262;59.958;17.726;2023-06-26T01:56:28;10.10;99.90
10431;DHT22;5262;59.958;17.726;2023-06-26T01:58:55;10.00;99.90
10431;DHT22;5262;59.958;17.726;2023-06-26T02:01:21;10.10;99.90
10431;DHT22;5262;59.958;17.726;2023-06-26T02:03:47;10.10;99.90
10431;DHT22;5262;59.958;17.726;2023-06-26T02:06:13;10.00;99.90
10431;DHT22;5262;59.958;17.726;2023-06-26T02:08:40;10.10;99.90
10431;DHT22;5262;59.958;17.726;2023-06-26T02:11:06;10.00;99.90
10431;DHT22;5262;59.958;17.726;2023-06-26T02:13:31;10.10;99.90
10431;DHT22;5262;59.958;17.726;2023-06-26T02:15:57;10.10;99.90
10431;DHT22;5262;59.958;17.726;2023-06-26T02:18:23;10.00;99.90
10431;DHT22;5262;59.958;17.726;2023-06-26T02:20:49;10.10;99.90
10431;DHT22;5262;59.958;17.726;2023-06-26T02:23:15;10.00;99.90
10431;DHT22;5262;59.958;17.726;2023-06-26T02:25:41;10.10;99.90
10431;DHT22;5262;59.958;17.726;2023-06-26T02:28:06;10.00;99.90
10431;DHT22;5262;59.958;17.726;2023-06-26T02:30:32;10.00;99.90
10431;DHT22;5262;59.958;17.726;2023-06-26T02:32:58;10.00;99.90
10431;DHT22;5262;59.958;17.726;2023-06-26T02:35:23;10.00;99.90
10431;DHT22;5262;59.958;17.726;2023-06-26T02:37:49;10.00;99.90
10431;DHT22;5262;59.958;17.726;2023-06-26T02:40:15;10.00;99.90
10431;DHT22;5262;59.958;17.726;2023-06-26T02:42:42;10.10;99.90
10431;DHT22;5262;59.958;17.726;2023-06-26T02:45:08;10.10;99.90
10431;DHT22;5262;59.958;17.726;2023-06-26T02:47:34;10.10;99.90
10431;DHT22;5262;59.958;17.726;2023-06-26T02:50:00;10.10;99.90
10431;DHT22;5262;59.958;17.726;2023-06-26T02:52:25;10.20;99.90
10431;DHT22;5262;59.958;17.726;2023-06-26T02:54:51;10.20;99.90
10431;DHT22;5262;59.958;17.726;2023-06-26T02:57:17;10.20;99.90
10431;DHT22;5262;59.958;17.726;2023-06-26T02:59:42;10.30;99.90
10431;DHT22;5262;59.958;17.726;2023-06-26T03:02:08;10.20;99.90
10431;DHT22;5262;59.958;17.726;2023-06-26T03:04:34;10.30;99.90
10431;DHT22;5262;59.958;17.726;2023-06-26T03:07:03;10.30;99.90
10431;DHT22;5262;59.958;17.726;2023-06-26T03:09:29;10.40;99.90
10431;DHT22;5262;59.958;17.726;2023-06-26T03:11:54;10.40;99.90
10431;DHT22;5262;59.958;17.726;2023-06-26T03:14:21;10.50;99.90
10431;DHT22;5262;59.958;17.726;2023-06-26T03:16:46;10.60;99.90
10431;DHT22;5262;59.958;17.726;2023-06-26T03:19:12;10.70;99.90
10431;DHT22;5262;59.958;17.726;2023-06-26T03:21:38;10.70;99.90
10431;DHT22;5262;59.958;17.726;2023-06-26T03:24:03;10.80;99.90
10431;DHT22;5262;59.958;17.726;2023-06-26T03:26:29;10.80;99.90
10431;DHT22;5262;59.958;17.726;2023-06-26T03:28:55;10.90;99.90
10431;DHT22;5262;59.958;17.726;2023-06-26T03:31:20;10.90;99.90
10431;DHT22;5262;59.958;17.726;2023-06-26T03:33:46;11.00;99.90
10431;DHT22;5262;59.958;17.726;2023-06-26T03:36:12;11.10;99.90
10431;DHT22;5262;59.958;17.726;2023-06-26T03:38:38;11.10;99.90
10431;DHT22;5262;59.958;17.726;2023-06-26T03:41:03;11.10;99.90
10431;DHT22;5262;59.958;17.726;2023-06-26T03:43:29;11.30;99.90
10431;DHT22;5262;59.958;17.726;2023-06-26T03:45:55;11.30;99.90
10431;DHT22;5262;59.958;17.726;2023-06-26T03:48:21;11.50;99.90
10431;DHT22;5262;59.958;17.726;2023-06-26T03:50:46;11.60;99.90
10431;DHT22;5262;59.958;17.726;2023-06-26T03:53:12;11.80;99.90
10431;DHT22;5262;59.958;17.726;2023-06-26T03:55:38;11.90;99.90
10431;DHT22;5262;59.958;17.726;2023-06-26T03:58:04;11.90;99.90
10431;DHT22;5262;59.958;17.726;2023-06-26T04:00:30;12.00;99.90
10431;DHT22;5262;59.958;17.726;2023-06-26T04:02:56;12.00;99.90
10431;DHT22;5262;59.958;17.726;2023-06-26T04:05:23;12.00;99.90
10431;DHT22;5262;59.958;17.726;2023-06-26T04:07:52;12.10;99.90
10431;DHT22;5262;59.958;17.726;2023-06-26T04:10:18;12.20;99.90
10431;DHT22;5262;59.958;17.726;2023-06-26T04:12:44;12.20;99.90
10431;DHT22;5262;59.958;17.726;2023-06-26T04:15:09;12.30;99.90
10431;DHT22;5262;59.958;17.726;2023-06-26T04:17:35;12.50;99.90
10431;DHT22;5262;59.958;17.726;2023-06-26T04:20:00;12.50;99.90
10431;DHT22;5262;59.958;17.726;2023-06-26T04:22:26;12.80;99.90
10431;DHT22;5262;59.958;17.726;2023-06-26T04:24:52;12.80;99.90
10431;DHT22;5262;59.958;17.726;2023-06-26T04:27:18;13.00;99.90
10431;DHT22;5262;59.958;17.726;2023-06-26T04:29:43;13.00;99.90
10431;DHT22;5262;59.958;17.726;2023-06-26T04:32:09;13.20;99.90
10431;DHT22;5262;59.958;17.726;2023-06-26T04:34:35;13.30;99.90
10431;DHT22;5262;59.958;17.726;2023-06-26T04:37:02;13.50;99.90
10431;DHT22;5262;59.958;17.726;2023-06-26T04:39:30;13.50;99.90
10431;DHT22;5262;59.958;17.726;2023-06-26T04:41:56;13.60;99.90
10431;DHT22;5262;59.958;17.726;2023-06-26T04:44:21;13.70;99.90
10431;DHT22;5262;59.958;17.726;2023-06-26T04:46:47;13.70;99.90
10431;DHT22;5262;59.958;17.726;2023-06-26T04:49:13;13.80;99.90
10431;DHT22;5262;59.958;17.726;2023-06-26T04:51:38;14.00;99.90
10431;DHT22;5262;59.958;17.726;2023-06-26T04:54:12;14.10;99.90
10431;DHT22;5262;59.958;17.726;2023-06-26T04:56:38;14.20;99.90
10431;DHT22;5262;59.958;17.726;2023-06-26T04:59:05;14.40;99.90
10431;DHT22;5262;59.958;17.726;2023-06-26T05:01:31;14.60;99.90
10431;DHT22;5262;59.958;17.726;2023-06-26T05:03:58;14.80;99.90
10431;DHT22;5262;59.958;17.726;2023-06-26T05:06:23;14.90;99.90
10431;DHT22;5262;59.958;17.726;2023-06-26T05:08:49;15.10;99.90
10431;DHT22;5262;59.958;17.726;2023-06-26T05:11:15;15.30;99.90
10431;DHT22;5262;59.958;17.726;2023-06-26T05:13:41;15.30;99.90
10431;DHT22;5262;59.958;17.726;2023-06-26T05:16:08;15.50;99.90
10431;DHT22;5262;59.958;17.726;2023-06-26T05:18:35;15.70;99.90
10431;DHT22;5262;59.958;17.726;2023-06-26T05:21:01;15.80;99.90
10431;DHT22;5262;59.958;17.726;2023-06-26T05:23:27;16.00;99.90
10431;DHT22;5262;59.958;17.726;2023-06-26T05:25:55;16.20;99.90
10431;DHT22;5262;59.958;17.726;2023-06-26T05:28:22;16.30;99.90
10431;DHT22;5262;59.958;17.726;2023-06-26T05:30:52;16.50;99.90
10431;DHT22;5262;59.958;17.726;2023-06-26T05:33:18;16.60;99.90
10431;DHT22;5262;59.958;17.726;2023-06-26T05:35:48;16.80;99.90
10431;DHT22;5262;59.958;17.726;2023-06-26T05:38:14;16.80;99.90
10431;DHT22;5262;59.958;17.726;2023-06-26T05:40:40;17.00;99.90
10431;DHT22;5262;59.958;17.726;2023-06-26T05:43:07;17.10;99.90
10431;DHT22;5262;59.958;17.726;2023-06-26T05:45:32;17.20;99.90
10431;DHT22;5262;59.958;17.726;2023-06-26T05:47:58;17.50;99.90
10431;DHT22;5262;59.958;17.726;2023-06-26T05:50:24;17.80;99.90
10431;DHT22;5262;59.958;17.726;2023-06-26T05:52:51;18.00;99.90
10431;DHT22;5262;59.958;17.726;2023-06-26T05:55:17;18.20;99.90
10431;DHT22;5262;59.958;17.726;2023-06-26T05:57:43;18.50;99.90
10431;DHT22;5262;59.958;17.726;2023-06-26T06:00:10;18.70;99.90
10431;DHT22;5262;59.958;17.726;2023-06-26T06:02:37;18.90;99.90
10431;DHT22;5262;59.958;17.726;2023-06-26T06:05:03;18.90;99.90
10431;DHT22;5262;59.958;17.726;2023-06-26T06:07:29;19.30;99.90
10431;DHT22;5262;59.958;17.726;2023-06-26T06:09:54;19.50;99.90
10431;DHT22;5262;59.958;17.726;2023-06-26T06:12:20;19.80;99.90
10431;DHT22;5262;59.958;17.726;2023-06-26T06:14:45;20.30;99.90
10431;DHT22;5262;59.958;17.726;2023-06-26T06:17:11;20.30;99.90
10431;DHT22;5262;59.958;17.726;2023-06-26T06:19:37;20.60;99.90
10431;DHT22;5262;59.958;17.726;2023-06-26T06:22:02;20.70;99.90
10431;DHT22;5262;59.958;17.726;2023-06-26T06:24:28;20.80;99.90
10431;DHT22;5262;59.958;17.726;2023-06-26T06:26:54;20.90;99.10
10431;DHT22;5262;59.958;17.726;2023-06-26T06:29:19;21.60;99.40
10431;DHT22;5262;59.958;17.726;2023-06-26T06:31:45;21.90;97.10
10431;DHT22;5262;59.958;17.726;2023-06-26T06:34:11;22.00;97.50
10431;DHT22;5262;59.958;17.726;2023-06-26T06:36:38;22.40;95.60
10431;DHT22;5262;59.958;17.726;2023-06-26T06:39:03;22.80;95.60
10431;DHT22;5262;59.958;17.726;2023-06-26T06:41:29;23.70;93.90
10431;DHT22;5262;59.958;17.726;2023-06-26T06:43:55;23.80;90.80
10431;DHT22;5262;59.958;17.726;2023-06-26T06:46:20;24.70;88.30
10431;DHT22;5262;59.958;17.726;2023-06-26T06:48:46;25.00;82.10
10431;DHT22;5262;59.958;17.726;2023-06-26T06:51:12;25.10;78.70
10431;DHT22;5262;59.958;17.726;2023-06-26T06:53:38;26.20;75.10
10431;DHT22;5262;59.958;17.726;2023-06-26T06:56:04;26.50;73.40
10431;DHT22;5262;59.958;17.726;2023-06-26T06:58:30;27.30;67.30
10431;DHT22;5262;59.958;17.726;2023-06-26T07:00:59;27.10;64.90
10431;DHT22;5262;59.958;17.726;2023-06-26T07:03:25;27.30;65.50
10431;DHT22;5262;59.958;17.726;2023-06-26T07:05:50;28.00;64.70
10431;DHT22;5262;59.958;17.726;2023-06-26T07:08:16;28.00;62.10
10431;DHT22;5262;59.958;17.726;2023-06-26T07:10:42;28.80;57.90
10431;DHT22;5262;59.958;17.726;2023-06-26T07:13:08;28.70;60.00
10431;DHT22;5262;59.958;17.726;2023-06-26T07:15:33;28.30;58.60
10431;DHT22;5262;59.958;17.726;2023-06-26T07:17:59;28.00;58.30
10431;DHT22;5262;59.958;17.726;2023-06-26T07:20:25;28.10;56.90
10431;DHT22;5262;59.958;17.726;2023-06-26T07:22:50;28.40;57.90
10431;DHT22;5262;59.958;17.726;2023-06-26T07:25:16;29.10;55.60
10431;DHT22;5262;59.958;17.726;2023-06-26T07:27:42;28.80;56.70
10431;DHT22;5262;59.958;17.726;2023-06-26T07:30:09;28.90;55.90
10431;DHT22;5262;59.958;17.726;2023-06-26T07:32:35;29.00;55.60
10431;DHT22;5262;59.958;17.726;2023-06-26T07:35:01;29.70;54.00
10431;DHT22;5262;59.958;17.726;2023-06-26T07:37:26;30.30;53.20
10431;DHT22;5262;59.958;17.726;2023-06-26T07:39:52;29.90;52.40
10431;DHT22;5262;59.958;17.726;2023-06-26T07:42:18;30.10;51.70
10431;DHT22;5262;59.958;17.726;2023-06-26T07:44:44;30.50;51.60
10431;DHT22;5262;59.958;17.726;2023-06-26T07:47:10;30.90;51.10
10431;DHT22;5262;59.958;17.726;2023-06-26T07:49:36;30.50;50.70
10431;DHT22;5262;59.958;17.726;2023-06-26T07:52:02;30.80;50.00
10431;DHT22;5262;59.958;17.726;2023-06-26T07:54:27;30.10;51.00
10431;DHT22;5262;59.958;17.726;2023-06-26T07:56:58;30.60;50.60
10431;DHT22;5262;59.958;17.726;2023-06-26T07:59:26;31.60;48.30
10431;DHT22;5262;59.958;17.726;2023-06-26T08:01:53;31.70;49.20
10431;DHT22;5262;59.958;17.726;2023-06-26T08:04:20;31.90;47.70
10431;DHT22;5262;59.958;17.726;2023-06-26T08:06:50;31.80;47.00
10431;DHT22;5262;59.958;17.726;2023-06-26T08:09:19;31.90;48.20
10431;DHT22;5262;59.958;17.726;2023-06-26T08:11:46;32.30;47.20
10431;DHT22;5262;59.958;17.726;2023-06-26T08:14:11;31.60;46.20
10431;DHT22;5262;59.958;17.726;2023-06-26T08:16:41;31.90;46.70
10431;DHT22;5262;59.958;17.726;2023-06-26T08:19:07;32.60;45.00
10431;DHT22;5262;59.958;17.726;2023-06-26T08:21:33;32.30;44.20
10431;DHT22;5262;59.958;17.726;2023-06-26T08:23:58;32.00;44.30
10431;DHT22;5262;59.958;17.726;2023-06-26T08:26:24;31.70;46.80
10431;DHT22;5262;59.958;17.726;2023-06-26T08:28:50;32.10;46.90
10431;DHT22;5262;59.958;17.726;2023-06-26T08:31:16;32.60;44.70
10431;DHT22;5262;59.958;17.726;2023-06-26T08:33:42;32.70;43.40
10431;DHT22;5262;59.958;17.726;2023-06-26T08:36:07;32.80;42.30
10431;DHT22;5262;59.958;17.726;2023-06-26T08:38:33;32.80;44.40
10431;DHT22;5262;59.958;17.726;2023-06-26T08:40:59;32.60;42.40
10431;DHT22;5262;59.958;17.726;2023-06-26T08:43:25;32.10;45.70
10431;DHT22;5262;59.958;17.726;2023-06-26T08:45:52;32.60;44.20
10431;DHT22;5262;59.958;17.726;2023-06-26T08:48:18;31.70;45.20
10431;DHT22;5262;59.958;17.726;2023-06-26T08:50:48;32.60;43.20
10431;DHT22;5262;59.958;17.726;2023-06-26T08:55:53;31.60;43.00
10431;DHT22;5262;59.958;17.726;2023-06-26T08:58:20;32.50;43.50
10431;DHT22;5262;59.958;17.726;2023-06-26T09:00:45;33.40;43.80
10431;DHT22;5262;59.958;17.726;2023-06-26T09:03:12;33.50;43.20
10431;DHT22;5262;59.958;17.726;2023-06-26T09:05:38;33.50;39.80
10431;DHT22;5262;59.958;17.726;2023-06-26T09:08:04;33.30;41.50
10431;DHT22;5262;59.958;17.726;2023-06-26T09:10:30;33.30;41.00
10431;DHT22;5262;59.958;17.726;2023-06-26T09:12:56;33.30;40.80
10431;DHT22;5262;59.958;17.726;2023-06-26T09:15:26;33.70;39.00
10431;DHT22;5262;59.958;17.726;2023-06-26T09:17:56;33.60;40.80
10431;DHT22;5262;59.958;17.726;2023-06-26T09:20:22;33.20;42.00
10431;DHT22;5262;59.958;17.726;2023-06-26T09:22:48;33.80;39.90
10431;DHT22;5262;59.958;17.726;2023-06-26T09:25:14;34.00;40.50
10431;DHT22;5262;59.958;17.726;2023-06-26T09:27:39;33.80;38.70
10431;DHT22;5262;59.958;17.726;2023-06-26T09:30:06;34.30;37.90
10431;DHT22;5262;59.958;17.726;2023-06-26T09:32:37;34.10;39.10
10431;DHT22;5262;59.958;17.726;2023-06-26T09:35:04;33.10;37.70
10431;DHT22;5262;59.958;17.726;2023-06-26T09:37:29;34.20;39.70
10431;DHT22;5262;59.958;17.726;2023-06-26T09:39:55;34.30;36.70
10431;DHT22;5262;59.958;17.726;2023-06-26T09:42:21;34.50;36.90
10431;DHT22;5262;59.958;17.726;2023-06-26T09:44:48;34.50;35.90
10431;DHT22;5262;59.958;17.726;2023-06-26T09:47:18;34.80;37.50
10431;DHT22;5262;59.958;17.726;2023-06-26T09:49:45;35.40;36.80
10431;DHT22;5262;59.958;17.726;2023-06-26T09:52:17;34.30;34.40
10431;DHT22;5262;59.958;17.726;2023-06-26T09:54:44;34.30;36.00
10431;DHT22;5262;59.958;17.726;2023-06-26T09:57:17;34.00;38.20
10431;DHT22;5262;59.958;17.726;2023-06-26T09:59:43;34.20;38.70
10431;DHT22;5262;59.958;17.726;2023-06-26T10:02:12;34.10;38.40
10431;DHT22;5262;59.958;17.726;2023-06-26T10:04:38;34.00;38.80
10431;DHT22;5262;59.958;17.726;2023-06-26T10:07:10;34.70;37.60
10431;DHT22;5262;59.958;17.726;2023-06-26T10:09:42;34.20;37.50
10431;DHT22;5262;59.958;17.726;2023-06-26T10:12:29;34.40;35.30
10431;DHT22;5262;59.958;17.726;2023-06-26T10:14:58;34.50;35.70
10431;DHT22;5262;59.958;17.726;2023-06-26T10:17:28;35.30;35.20
10431;DHT22;5262;59.958;17.726;2023-06-26T10:19:58;35.00;35.60
10431;DHT22;5262;59.958;17.726;2023-06-26T10:22:29;34.90;36.00
10431;DHT22;5262;59.958;17.726;2023-06-26T10:24:58;35.10;35.60
10431;DHT22;5262;59.958;17.726;2023-06-26T10:27:32;35.50;34.70
10431;DHT22;5262;59.958;17.726;2023-06-26T10:30:03;35.50;35.70
10431;DHT22;5262;59.958;17.726;2023-06-26T10:32:31;34.20;37.10
10431;DHT22;5262;59.958;17.726;2023-06-26T10:34:57;34.50;35.70
10431;DHT22;5262;59.958;17.726;2023-06-26T10:37:51;34.40;35.30
10431;DHT22;5262;59.958;17.726;2023-06-26T10:40:28;34.50;37.80
10431;DHT22;5262;59.958;17.726;2023-06-26T10:43:09;34.40;37.20
10431;DHT22;5262;59.958;17.726;2023-06-26T10:45:35;33.50;38.00
10431;DHT22;5262;59.958;17.726;2023-06-26T10:48:02;34.20;36.90
10431;DHT22;5262;59.958;17.726;2023-06-26T10:50:30;34.40;37.40
10431;DHT22;5262;59.958;17.726;2023-06-26T10:56:00;33.30;37.10
10431;DHT22;5262;59.958;17.726;2023-06-26T11:03:42;32.60;36.80
10431;DHT22;5262;59.958;17.726;2023-06-26T11:06:27;32.50;38.10
10431;DHT22;5262;59.958;17.726;2023-06-26T11:08:55;32.70;37.80
10431;DHT22;5262;59.958;17.726;2023-06-26T11:14:30;33.50;36.30
10431;DHT22;5262;59.958;17.726;2023-06-26T11:16:56;32.80;38.20
10431;DHT22;5262;59.958;17.726;2023-06-26T11:19:26;32.40;37.20
10431;DHT22;5262;59.958;17.726;2023-06-26T11:21:58;31.90;37.80
10431;DHT22;5262;59.958;17.726;2023-06-26T11:24:25;31.80;38.90
10431;DHT22;5262;59.958;17.726;2023-06-26T11:26:50;30.90;39.40
10431;DHT22;5262;59.958;17.726;2023-06-26T11:29:16;31.60;36.90
10431;DHT22;5262;59.958;17.726;2023-06-26T11:31:42;31.70;37.30
10431;DHT22;5262;59.958;17.726;2023-06-26T11:34:12;31.40;37.40
10431;DHT22;5262;59.958;17.726;2023-06-26T11:36:39;31.40;39.40
10431;DHT22;5262;59.958;17.726;2023-06-26T11:39:07;31.80;39.30
10431;DHT22;5262;59.958;17.726;2023-06-26T11:41:38;32.10;37.30
10431;DHT22;5262;59.958;17.726;2023-06-26T11:44:08;31.20;39.10
10431;DHT22;5262;59.958;17.726;2023-06-26T11:46:35;31.40;39.00
10431;DHT22;5262;59.958;17.726;2023-06-26T11:49:05;31.10;40.90
10431;DHT22;5262;59.958;17.726;2023-06-26T11:51:31;31.20;39.40
10431;DHT22;5262;59.958;17.726;2023-06-26T11:54:00;30.90;38.30
10431;DHT22;5262;59.958;17.726;2023-06-26T11:56:26;31.00;38.60
10431;DHT22;5262;59.958;17.726;2023-06-26T11:59:05;30.80;38.10
10431;DHT22;5262;59.958;17.726;2023-06-26T12:01:43;31.40;38.90
10431;DHT22;5262;59.958;17.726;2023-06-26T12:04:16;31.10;39.40
10431;DHT22;5262;59.958;17.726;2023-06-26T12:06:50;29.80;39.10
10431;DHT22;5262;59.958;17.726;2023-06-26T12:09:18;29.90;39.90
10431;DHT22;5262;59.958;17.726;2023-06-26T12:11:45;30.20;41.50
10431;DHT22;5262;59.958;17.726;2023-06-26T12:14:14;30.70;42.10
10431;DHT22;5262;59.958;17.726;2023-06-26T12:16:40;29.80;39.50
10431;DHT22;5262;59.958;17.726;2023-06-26T12:19:07;30.20;41.00
10431;DHT22;5262;59.958;17.726;2023-06-26T12:24:00;29.80;43.00
10431;DHT22;5262;59.958;17.726;2023-06-26T12:26:26;28.70;43.10
10431;DHT22;5262;59.958;17.726;2023-06-26T12:28:52;28.10;44.20
10431;DHT22;5262;59.958;17.726;2023-06-26T12:31:21;27.70;44.30
10431;DHT22;5262;59.958;17.726;2023-06-26T12:33:47;27.30;45.90
10431;DHT22;5262;59.958;17.726;2023-06-26T12:36:13;27.10;46.10
10431;DHT22;5262;59.958;17.726;2023-06-26T12:38:40;27.20;48.60
10431;DHT22;5262;59.958;17.726;2023-06-26T12:41:12;26.90;48.40
10431;DHT22;5262;59.958;17.726;2023-06-26T12:43:40;27.40;46.70
10431;DHT22;5262;59.958;17.726;2023-06-26T12:46:06;27.10;45.30
10431;DHT22;5262;59.958;17.726;2023-06-26T12:48:42;27.30;47.30
10431;DHT22;5262;59.958;17.726;2023-06-26T12:51:17;27.10;46.50
10431;DHT22;5262;59.958;17.726;2023-06-26T12:53:43;27.10;46.90
10431;DHT22;5262;59.958;17.726;2023-06-26T12:56:09;27.00;47.90
10431;DHT22;5262;59.958;17.726;2023-06-26T12:58:36;26.80;48.60
10431;DHT22;5262;59.958;17.726;2023-06-26T13:01:04;26.50;50.20
10431;DHT22;5262;59.958;17.726;2023-06-26T13:03:31;26.80;50.20
10431;DHT22;5262;59.958;17.726;2023-06-26T13:05:57;26.70;49.10
10431;DHT22;5262;59.958;17.726;2023-06-26T13:08:22;26.80;48.70
10431;DHT22;5262;59.958;17.726;2023-06-26T13:10:48;26.80;49.10
10431;DHT22;5262;59.958;17.726;2023-06-26T13:13:14;26.80;49.40
10431;DHT22;5262;59.958;17.726;2023-06-26T13:15:39;26.70;50.30
10431;DHT22;5262;59.958;17.726;2023-06-26T13:18:05;26.70;50.00
10431;DHT22;5262;59.958;17.726;2023-06-26T13:20:30;26.60;50.50
10431;DHT22;5262;59.958;17.726;2023-06-26T13:22:56;27.30;51.30
10431;DHT22;5262;59.958;17.726;2023-06-26T13:25:22;27.10;50.50
10431;DHT22;5262;59.958;17.726;2023-06-26T13:27:48;27.20;51.80
10431;DHT22;5262;59.958;17.726;2023-06-26T13:30:15;27.70;51.40
10431;DHT22;5262;59.958;17.726;2023-06-26T13:32:40;28.20;48.80
10431;DHT22;5262;59.958;17.726;2023-06-26T13:35:06;28.50;48.40
10431;DHT22;5262;59.958;17.726;2023-06-26T13:37:32;28.80;47.30
10431;DHT22;5262;59.958;17.726;2023-06-26T13:40:00;28.90;46.70
10431;DHT22;5262;59.958;17.726;2023-06-26T13:42:27;28.90;45.80
10431;DHT22;5262;59.958;17.726;2023-06-26T13:44:53;28.90;46.90
10431;DHT22;5262;59.958;17.726;2023-06-26T13:47:18;29.20;45.80
10431;DHT22;5262;59.958;17.726;2023-06-26T13:49:44;28.90;46.00
10431;DHT22;5262;59.958;17.726;2023-06-26T13:52:10;28.00;46.70
10431;DHT22;5262;59.958;17.726;2023-06-26T13:54:36;27.90;47.50
10431;DHT22;5262;59.958;17.726;2023-06-26T13:57:05;27.70;48.20
10431;DHT22;5262;59.958;17.726;2023-06-26T13:59:31;27.60;48.40
10431;DHT22;5262;59.958;17.726;2023-06-26T14:01:56;27.50;48.90
10431;DHT22;5262;59.958;17.726;2023-06-26T14:04:22;27.10;49.50
10431;DHT22;5262;59.958;17.726;2023-06-26T14:06:47;27.00;49.80
10431;DHT22;5262;59.958;17.726;2023-06-26T14:09:13;26.90;50.60
10431;DHT22;5262;59.958;17.726;2023-06-26T14:11:39;27.40;50.00
10431;DHT22;5262;59.958;17.726;2023-06-26T14:14:04;27.30;47.30
10431;DHT22;5262;59.958;17.726;2023-06-26T14:16:30;27.60;48.30
10431;DHT22;5262;59.958;17.726;2023-06-26T14:18:57;28.00;48.20
10431;DHT22;5262;59.958;17.726;2023-06-26T14:21:23;28.00;46.70
10431;DHT22;5262;59.958;17.726;2023-06-26T14:23:48;28.10;47.30
10431;DHT22;5262;59.958;17.726;2023-06-26T14:26:14;27.90;46.60
10431;DHT22;5262;59.958;17.726;2023-06-26T14:28:40;27.90;46.70
10431;DHT22;5262;59.958;17.726;2023-06-26T14:31:06;28.00;45.70
10431;DHT22;5262;59.958;17.726;2023-06-26T14:33:32;27.60;45.80
10431;DHT22;5262;59.958;17.726;2023-06-26T14:35:57;27.30;47.90
10431;DHT22;5262;59.958;17.726;2023-06-26T14:38:23;27.20;46.60
10431;DHT22;5262;59.958;17.726;2023-06-26T14:40:49;26.90;47.60
10431;DHT22;5262;59.958;17.726;2023-06-26T14:43:14;27.00;47.70
10431;DHT22;5262;59.958;17.726;2023-06-26T14:45:40;26.80;49.80
10431;DHT22;5262;59.958;17.726;2023-06-26T14:48:05;26.50;48.00
10431;DHT22;5262;59.958;17.726;2023-06-26T14:50:31;26.30;48.30
10431;DHT22;5262;59.958;17.726;2023-06-26T14:52:57;26.20;49.90
10431;DHT22;5262;59.958;17.726;2023-06-26T14:55:22;25.90;49.70
10431;DHT22;5262;59.958;17.726;2023-06-26T14:57:48;26.00;49.70
10431;DHT22;5262;59.958;17.726;2023-06-26T15:00:14;25.60;48.90
10431;DHT22;5262;59.958;17.726;2023-06-26T15:02:40;25.60;50.60
10431;DHT22;5262;59.958;17.726;2023-06-26T15:05:07;25.50;51.50
10431;DHT22;5262;59.958;17.726;2023-06-26T15:07:32;25.30;51.60
10431;DHT22;5262;59.958;17.726;2023-06-26T15:09:59;25.30;51.50
10431;DHT22;5262;59.958;17.726;2023-06-26T15:12:24;25.30;51.50
10431;DHT22;5262;59.958;17.726;2023-06-26T15:14:50;25.50;52.00
10431;DHT22;5262;59.958;17.726;2023-06-26T15:17:17;25.80;51.50
10431;DHT22;5262;59.958;17.726;2023-06-26T15:19:43;26.10;50.40
10431;DHT22;5262;59.958;17.726;2023-06-26T15:22:08;26.00;50.30
10431;DHT22;5262;59.958;17.726;2023-06-26T15:24:34;26.00;50.40
10431;DHT22;5262;59.958;17.726;2023-06-26T15:26:59;25.60;49.40
10431;DHT22;5262;59.958;17.726;2023-06-26T15:29:25;25.50;50.10
10431;DHT22;5262;59.958;17.726;2023-06-26T15:31:52;25.30;50.40
10431;DHT22;5262;59.958;17.726;2023-06-26T15:34:19;25.50;50.60
10431;DHT22;5262;59.958;17.726;2023-06-26T15:36:44;25.90;50.70
10431;DHT22;5262;59.958;17.726;2023-06-26T15:39:10;25.60;49.60
10431;DHT22;5262;59.958;17.726;2023-06-26T15:41:36;25.20;50.70
10431;DHT22;5262;59.958;17.726;2023-06-26T15:44:03;25.10;51.00
10431;DHT22;5262;59.958;17.726;2023-06-26T15:46:29;25.30;50.80
10431;DHT22;5262;59.958;17.726;2023-06-26T15:48:55;25.20;51.30